sensor_id;sensor_type;location;lat;lon;timestamp;P1;durP1;ratioP1;P2;durP2;ratioP2
8622;SDS011;4349;47.552;8.904;2023-04-01T00:01:23;0.90;;;0.90;;
8622;SDS011;4349;47.552;8.904;2023-04-01T00:03:50;3.03;;;0.93;;
8622;SDS011;4349;47.552;8.904;2023-04-01T00:06:19;1.53;;;0.90;;
8622;SDS011;4349;47.552;8.904;2023-04-01T00:08:47;1.47;;;1.00;;
8622;SDS011;4349;47.552;8.904;2023-04-01T00:11:14;1.10;;;0.80;;
8622;SDS011;4349;47.552;8.904;2023-04-01T00:13:42;1.90;;;0.97;;
8622;SDS011;4349;47.552;8.904;2023-04-01T00:16:09;0.70;;;0.70;;
8622;SDS011;4349;47.552;8.904;2023-04-01T00:18:47;1.27;;;0.90;;
8622;SDS011;4349;47.552;8.904;2023-04-01T00:21:14;1.80;;;0.90;;
8622;SDS011;4349;47.552;8.904;2023-04-01T00:23:43;1.07;;;0.73;;
8622;SDS011;4349;47.552;8.904;2023-04-01T00:26:11;3.17;;;1.00;;
8622;SDS011;4349;47.552;8.904;2023-04-01T00:28:41;1.53;;;0.90;;
8622;SDS011;4349;47.552;8.904;2023-04-01T00:31:09;1.00;;;0.80;;
8622;SDS011;4349;47.552;8.904;2023-04-01T00:33:36;1.00;;;1.00;;
8622;SDS011;4349;47.552;8.904;2023-04-01T00:36:08;3.13;;;1.30;;
8622;SDS011;4349;47.552;8.904;2023-04-01T00:38:36;1.10;;;1.10;;
8622;SDS011;4349;47.552;8.904;2023-04-01T00:41:05;1.30;;;1.20;;
8622;SDS011;4349;47.552;8.904;2023-04-01T00:43:33;1.77;;;1.20;;
8622;SDS011;4349;47.552;8.904;2023-04-01T00:46:00;2.00;;;1.20;;
8622;SDS011;4349;47.552;8.904;2023-04-01T00:48:28;1.80;;;1.70;;
8622;SDS011;4349;47.552;8.904;2023-04-01T00:50:58;1.97;;;1.40;;
8622;SDS011;4349;47.552;8.904;2023-04-01T00:53:26;2.70;;;1.40;;
8622;SDS011;4349;47.552;8.904;2023-04-01T00:55:56;1.47;;;1.40;;
8622;SDS011;4349;47.552;8.904;2023-04-01T00:58:29;2.03;;;1.20;;
8622;SDS011;4349;47.552;8.904;2023-04-01T01:00:57;1.20;;;1.20;;
8622;SDS011;4349;47.552;8.904;2023-04-01T01:03:26;2.37;;;1.10;;
8622;SDS011;4349;47.552;8.904;2023-04-01T01:05:57;2.37;;;0.93;;
8622;SDS011;4349;47.552;8.904;2023-04-01T01:08:33;1.17;;;1.17;;
8622;SDS011;4349;47.552;8.904;2023-04-01T01:11:07;1.50;;;1.00;;
8622;SDS011;4349;47.552;8.904;2023-04-01T01:13:38;0.90;;;0.90;;
8622;SDS011;4349;47.552;8.904;2023-04-01T01:16:09;0.90;;;0.90;;
8622;SDS011;4349;47.552;8.904;2023-04-01T01:18:42;1.23;;;0.80;;
8622;SDS011;4349;47.552;8.904;2023-04-01T01:21:22;0.73;;;0.70;;
8622;SDS011;4349;47.552;8.904;2023-04-01T01:24:07;1.63;;;1.00;;
8622;SDS011;4349;47.552;8.904;2023-04-01T01:26:45;1.30;;;1.00;;
8622;SDS011;4349;47.552;8.904;2023-04-01T01:31:49;1.27;;;0.90;;
8622;SDS011;4349;47.552;8.904;2023-04-01T01:34:19;0.70;;;0.70;;
8622;SDS011;4349;47.552;8.904;2023-04-01T01:36:52;0.97;;;0.80;;
8622;SDS011;4349;47.552;8.904;2023-04-01T01:39:21;0.73;;;0.73;;
8622;SDS011;4349;47.552;8.904;2023-04-01T01:41:54;0.90;;;0.90;;
8622;SDS011;4349;47.552;8.904;2023-04-01T01:44:22;1.40;;;0.80;;
8622;SDS011;4349;47.552;8.904;2023-04-01T01:46:50;0.63;;;0.63;;
8622;SDS011;4349;47.552;8.904;2023-04-01T01:49:17;0.80;;;0.80;;
8622;SDS011;4349;47.552;8.904;2023-04-01T01:51:46;0.97;;;0.80;;
8622;SDS011;4349;47.552;8.904;2023-04-01T01:54:16;0.80;;;0.80;;
8622;SDS011;4349;47.552;8.904;2023-04-01T01:56:44;1.30;;;0.80;;
8622;SDS011;4349;47.552;8.904;2023-04-01T01:59:13;0.80;;;0.80;;
8622;SDS011;4349;47.552;8.904;2023-04-01T02:01:42;1.10;;;0.70;;
8622;SDS011;4349;47.552;8.904;2023-04-01T02:04:13;1.97;;;0.80;;
8622;SDS011;4349;47.552;8.904;2023-04-01T02:06:44;1.13;;;0.70;;
8622;SDS011;4349;47.552;8.904;2023-04-01T02:09:13;0.97;;;0.80;;
8622;SDS011;4349;47.552;8.904;2023-04-01T02:11:43;1.87;;;1.10;;
8622;SDS011;4349;47.552;8.904;2023-04-01T02:14:13;0.80;;;0.80;;
8622;SDS011;4349;47.552;8.904;2023-04-01T02:16:43;0.70;;;0.70;;
8622;SDS011;4349;47.552;8.904;2023-04-01T02:19:12;0.90;;;0.90;;
8622;SDS011;4349;47.552;8.904;2023-04-01T02:21:40;0.80;;;0.80;;
8622;SDS011;4349;47.552;8.904;2023-04-01T02:24:10;1.47;;;0.80;;
8622;SDS011;4349;47.552;8.904;2023-04-01T02:26:39;1.03;;;0.70;;
8622;SDS011;4349;47.552;8.904;2023-04-01T02:29:08;1.03;;;0.80;;
8622;SDS011;4349;47.552;8.904;2023-04-01T02:31:37;1.10;;;1.00;;
8622;SDS011;4349;47.552;8.904;2023-04-01T02:34:04;0.70;;;0.70;;
8622;SDS011;4349;47.552;8.904;2023-04-01T02:36:32;1.00;;;0.90;;
8622;SDS011;4349;47.552;8.904;2023-04-01T02:38:59;2.80;;;1.00;;
8622;SDS011;4349;47.552;8.904;2023-04-01T02:41:28;1.80;;;1.00;;
8622;SDS011;4349;47.552;8.904;2023-04-01T02:43:56;0.73;;;0.73;;
8622;SDS011;4349;47.552;8.904;2023-04-01T02:46:26;1.40;;;1.30;;
8622;SDS011;4349;47.552;8.904;2023-04-01T02:48:53;1.63;;;0.90;;
8622;SDS011;4349;47.552;8.904;2023-04-01T02:51:21;1.93;;;1.17;;
8622;SDS011;4349;47.552;8.904;2023-04-01T02:53:48;1.10;;;1.00;;
8622;SDS011;4349;47.552;8.904;2023-04-01T02:56:15;1.30;;;0.97;;
8622;SDS011;4349;47.552;8.904;2023-04-01T02:58:43;1.37;;;1.00;;
8622;SDS011;4349;47.552;8.904;2023-04-01T03:01:11;2.80;;;1.17;;
8622;SDS011;4349;47.552;8.904;2023-04-01T03:03:40;2.33;;;0.90;;
8622;SDS011;4349;47.552;8.904;2023-04-01T03:06:08;1.57;;;1.03;;
8622;SDS011;4349;47.552;8.904;2023-04-01T03:08:35;1.10;;;0.97;;
8622;SDS011;4349;47.552;8.904;2023-04-01T03:11:03;1.20;;;1.10;;
8622;SDS011;4349;47.552;8.904;2023-04-01T03:13:33;2.57;;;1.00;;
8622;SDS011;4349;47.552;8.904;2023-04-01T03:16:01;2.00;;;1.03;;
8622;SDS011;4349;47.552;8.904;2023-04-01T03:18:28;3.87;;;1.23;;
8622;SDS011;4349;47.552;8.904;2023-04-01T03:20:57;3.40;;;1.10;;
8622;SDS011;4349;47.552;8.904;2023-04-01T03:23:38;2.33;;;1.60;;
8622;SDS011;4349;47.552;8.904;2023-04-01T03:26:06;5.13;;;1.60;;
8622;SDS011;4349;47.552;8.904;2023-04-01T03:28:34;1.57;;;1.00;;
8622;SDS011;4349;47.552;8.904;2023-04-01T03:31:01;1.20;;;0.93;;
8622;SDS011;4349;47.552;8.904;2023-04-01T03:33:36;2.07;;;1.07;;
8622;SDS011;4349;47.552;8.904;2023-04-01T03:36:05;2.40;;;1.27;;
8622;SDS011;4349;47.552;8.904;2023-04-01T03:38:33;1.23;;;0.90;;
8622;SDS011;4349;47.552;8.904;2023-04-01T03:41:00;1.40;;;1.07;;
8622;SDS011;4349;47.552;8.904;2023-04-01T03:43:29;5.03;;;1.10;;
8622;SDS011;4349;47.552;8.904;2023-04-01T03:45:56;1.53;;;0.90;;
8622;SDS011;4349;47.552;8.904;2023-04-01T03:48:24;2.30;;;1.17;;
8622;SDS011;4349;47.552;8.904;2023-04-01T03:50:52;1.87;;;1.20;;
8622;SDS011;4349;47.552;8.904;2023-04-01T03:53:23;5.73;;;1.20;;
8622;SDS011;4349;47.552;8.904;2023-04-01T03:55:52;2.60;;;1.23;;
8622;SDS011;4349;47.552;8.904;2023-04-01T03:58:19;1.57;;;1.00;;
8622;SDS011;4349;47.552;8.904;2023-04-01T04:00:47;2.30;;;1.03;;
8622;SDS011;4349;47.552;8.904;2023-04-01T04:03:14;1.67;;;1.10;;
8622;SDS011;4349;47.552;8.904;2023-04-01T04:05:45;0.90;;;0.90;;
8622;SDS011;4349;47.552;8.904;2023-04-01T04:08:14;2.77;;;1.03;;
8622;SDS011;4349;47.552;8.904;2023-04-01T04:10:42;1.50;;;0.93;;
8622;SDS011;4349;47.552;8.904;2023-04-01T04:13:10;1.30;;;0.73;;
8622;SDS011;4349;47.552;8.904;2023-04-01T04:15:44;2.30;;;0.90;;
8622;SDS011;4349;47.552;8.904;2023-04-01T04:18:11;1.20;;;1.00;;
8622;SDS011;4349;47.552;8.904;2023-04-01T04:20:43;1.97;;;0.87;;
8622;SDS011;4349;47.552;8.904;2023-04-01T04:23:11;2.97;;;1.10;;
8622;SDS011;4349;47.552;8.904;2023-04-01T04:25:40;1.90;;;0.90;;
8622;SDS011;4349;47.552;8.904;2023-04-01T04:28:08;1.20;;;1.10;;
8622;SDS011;4349;47.552;8.904;2023-04-01T04:30:36;1.00;;;0.80;;
8622;SDS011;4349;47.552;8.904;2023-04-01T04:33:03;1.00;;;0.90;;
8622;SDS011;4349;47.552;8.904;2023-04-01T04:35:31;0.80;;;0.80;;
8622;SDS011;4349;47.552;8.904;2023-04-01T04:37:59;2.67;;;1.20;;
8622;SDS011;4349;47.552;8.904;2023-04-01T04:40:28;1.77;;;1.30;;
8622;SDS011;4349;47.552;8.904;2023-04-01T04:42:55;2.30;;;1.10;;
8622;SDS011;4349;47.552;8.904;2023-04-01T04:45:24;2.47;;;1.47;;
8622;SDS011;4349;47.552;8.904;2023-04-01T04:47:54;1.10;;;1.00;;
8622;SDS011;4349;47.552;8.904;2023-04-01T04:50:22;1.50;;;1.10;;
8622;SDS011;4349;47.552;8.904;2023-04-01T04:52:50;5.53;;;1.30;;
8622;SDS011;4349;47.552;8.904;2023-04-01T04:55:18;2.70;;;1.00;;
8622;SDS011;4349;47.552;8.904;2023-04-01T04:57:50;1.07;;;0.97;;
8622;SDS011;4349;47.552;8.904;2023-04-01T05:00:18;1.77;;;1.20;;
8622;SDS011;4349;47.552;8.904;2023-04-01T05:02:55;0.80;;;0.80;;
8622;SDS011;4349;47.552;8.904;2023-04-01T05:05:23;2.13;;;1.10;;
8622;SDS011;4349;47.552;8.904;2023-04-01T05:07:51;1.30;;;0.90;;
8622;SDS011;4349;47.552;8.904;2023-04-01T05:10:19;1.93;;;1.10;;
8622;SDS011;4349;47.552;8.904;2023-04-01T05:12:47;1.03;;;0.90;;
8622;SDS011;4349;47.552;8.904;2023-04-01T05:15:17;1.27;;;0.80;;
8622;SDS011;4349;47.552;8.904;2023-04-01T05:17:45;2.33;;;1.07;;
8622;SDS011;4349;47.552;8.904;2023-04-01T05:20:14;0.80;;;0.80;;
8622;SDS011;4349;47.552;8.904;2023-04-01T05:22:42;0.90;;;0.90;;
8622;SDS011;4349;47.552;8.904;2023-04-01T05:25:10;1.80;;;0.97;;
8622;SDS011;4349;47.552;8.904;2023-04-01T05:27:37;2.23;;;0.93;;
8622;SDS011;4349;47.552;8.904;2023-04-01T05:30:05;0.80;;;0.80;;
8622;SDS011;4349;47.552;8.904;2023-04-01T05:32:51;1.03;;;0.80;;
8622;SDS011;4349;47.552;8.904;2023-04-01T05:35:22;0.77;;;0.73;;
8622;SDS011;4349;47.552;8.904;2023-04-01T05:37:50;0.80;;;0.80;;
8622;SDS011;4349;47.552;8.904;2023-04-01T05:40:19;1.50;;;0.70;;
8622;SDS011;4349;47.552;8.904;2023-04-01T05:42:46;0.93;;;0.70;;
8622;SDS011;4349;47.552;8.904;2023-04-01T05:45:15;0.70;;;0.70;;
8622;SDS011;4349;47.552;8.904;2023-04-01T05:47:48;1.03;;;0.73;;
8622;SDS011;4349;47.552;8.904;2023-04-01T05:50:16;0.90;;;0.80;;
8622;SDS011;4349;47.552;8.904;2023-04-01T05:52:45;0.73;;;0.73;;
8622;SDS011;4349;47.552;8.904;2023-04-01T05:55:13;0.73;;;0.73;;
8622;SDS011;4349;47.552;8.904;2023-04-01T05:57:40;1.00;;;0.80;;
8622;SDS011;4349;47.552;8.904;2023-04-01T06:00:08;0.70;;;0.70;;
8622;SDS011;4349;47.552;8.904;2023-04-01T06:02:39;1.93;;;0.80;;
8622;SDS011;4349;47.552;8.904;2023-04-01T06:05:11;0.90;;;0.70;;
8622;SDS011;4349;47.552;8.904;2023-04-01T06:07:39;0.77;;;0.70;;
8622;SDS011;4349;47.552;8.904;2023-04-01T06:10:11;1.10;;;1.00;;
8622;SDS011;4349;47.552;8.904;2023-04-01T06:12:48;1.90;;;0.70;;
8622;SDS011;4349;47.552;8.904;2023-04-01T06:15:20;1.07;;;0.70;;
8622;SDS011;4349;47.552;8.904;2023-04-01T06:17:58;0.60;;;0.60;;
8622;SDS011;4349;47.552;8.904;2023-04-01T06:20:31;0.70;;;0.70;;
8622;SDS011;4349;47.552;8.904;2023-04-01T06:23:09;0.70;;;0.67;;
8622;SDS011;4349;47.552;8.904;2023-04-01T06:25:47;1.57;;;0.70;;
8622;SDS011;4349;47.552;8.904;2023-04-01T06:31:08;0.77;;;0.70;;
8622;SDS011;4349;47.552;8.904;2023-04-01T06:33:43;1.20;;;0.90;;
8622;SDS011;4349;47.552;8.904;2023-04-01T06:36:26;1.20;;;1.00;;
8622;SDS011;4349;47.552;8.904;2023-04-01T06:39:03;1.93;;;0.90;;
8622;SDS011;4349;47.552;8.904;2023-04-01T06:41:40;2.63;;;0.70;;
8622;SDS011;4349;47.552;8.904;2023-04-01T06:44:16;0.80;;;0.80;;
8622;SDS011;4349;47.552;8.904;2023-04-01T06:47:07;0.63;;;0.60;;
8622;SDS011;4349;47.552;8.904;2023-04-01T06:50:01;1.17;;;0.63;;
8622;SDS011;4349;47.552;8.904;2023-04-01T06:52:54;0.67;;;0.60;;
8622;SDS011;4349;47.552;8.904;2023-04-01T06:55:43;1.00;;;1.00;;
8622;SDS011;4349;47.552;8.904;2023-04-01T06:58:16;1.13;;;0.70;;
8622;SDS011;4349;47.552;8.904;2023-04-01T07:00:46;0.63;;;0.63;;
8622;SDS011;4349;47.552;8.904;2023-04-01T07:03:17;0.60;;;0.60;;
8622;SDS011;4349;47.552;8.904;2023-04-01T07:05:46;0.60;;;0.60;;
8622;SDS011;4349;47.552;8.904;2023-04-01T07:08:16;0.70;;;0.70;;
8622;SDS011;4349;47.552;8.904;2023-04-01T07:10:46;0.77;;;0.77;;
8622;SDS011;4349;47.552;8.904;2023-04-01T07:13:36;1.13;;;0.80;;
8622;SDS011;4349;47.552;8.904;2023-04-01T07:16:16;0.80;;;0.80;;
8622;SDS011;4349;47.552;8.904;2023-04-01T07:18:46;1.27;;;0.60;;
8622;SDS011;4349;47.552;8.904;2023-04-01T07:21:19;0.70;;;0.70;;
8622;SDS011;4349;47.552;8.904;2023-04-01T07:23:48;0.83;;;0.70;;
8622;SDS011;4349;47.552;8.904;2023-04-01T07:26:31;0.60;;;0.60;;
8622;SDS011;4349;47.552;8.904;2023-04-01T07:29:08;1.03;;;0.60;;
8622;SDS011;4349;47.552;8.904;2023-04-01T07:31:44;0.60;;;0.60;;
8622;SDS011;4349;47.552;8.904;2023-04-01T07:34:17;0.63;;;0.63;;
8622;SDS011;4349;47.552;8.904;2023-04-01T07:36:47;0.67;;;0.63;;
8622;SDS011;4349;47.552;8.904;2023-04-01T07:39:19;0.60;;;0.60;;
8622;SDS011;4349;47.552;8.904;2023-04-01T07:42:15;0.50;;;0.50;;
8622;SDS011;4349;47.552;8.904;2023-04-01T07:44:46;0.50;;;0.50;;
8622;SDS011;4349;47.552;8.904;2023-04-01T07:47:21;0.60;;;0.53;;
8622;SDS011;4349;47.552;8.904;2023-04-01T07:49:54;0.60;;;0.60;;
8622;SDS011;4349;47.552;8.904;2023-04-01T07:52:26;0.70;;;0.70;;
8622;SDS011;4349;47.552;8.904;2023-04-01T07:55:01;0.50;;;0.50;;
8622;SDS011;4349;47.552;8.904;2023-04-01T07:57:34;0.73;;;0.70;;
8622;SDS011;4349;47.552;8.904;2023-04-01T08:00:06;0.60;;;0.60;;
8622;SDS011;4349;47.552;8.904;2023-04-01T08:02:43;0.83;;;0.83;;
8622;SDS011;4349;47.552;8.904;2023-04-01T08:05:14;0.50;;;0.50;;
8622;SDS011;4349;47.552;8.904;2023-04-01T08:07:45;0.60;;;0.60;;
8622;SDS011;4349;47.552;8.904;2023-04-01T08:10:43;0.50;;;0.50;;
8622;SDS011;4349;47.552;8.904;2023-04-01T08:13:32;0.40;;;0.40;;
8622;SDS011;4349;47.552;8.904;2023-04-01T08:16:41;0.57;;;0.40;;
8622;SDS011;4349;47.552;8.904;2023-04-01T08:19:21;0.70;;;0.70;;
8622;SDS011;4349;47.552;8.904;2023-04-01T08:21:55;0.70;;;0.70;;
8622;SDS011;4349;47.552;8.904;2023-04-01T08:24:25;0.67;;;0.67;;
8622;SDS011;4349;47.552;8.904;2023-04-01T08:27:12;0.80;;;0.80;;
8622;SDS011;4349;47.552;8.904;2023-04-01T08:29:42;0.50;;;0.50;;
8622;SDS011;4349;47.552;8.904;2023-04-01T08:32:15;0.60;;;0.60;;
8622;SDS011;4349;47.552;8.904;2023-04-01T08:34:47;0.40;;;0.40;;
8622;SDS011;4349;47.552;8.904;2023-04-01T08:37:28;0.60;;;0.60;;
8622;SDS011;4349;47.552;8.904;2023-04-01T08:39:58;0.80;;;0.80;;
8622;SDS011;4349;47.552;8.904;2023-04-01T08:42:31;0.53;;;0.50;;
8622;SDS011;4349;47.552;8.904;2023-04-01T08:45:26;0.93;;;0.63;;
8622;SDS011;4349;47.552;8.904;2023-04-01T08:51:16;0.63;;;0.63;;
8622;SDS011;4349;47.552;8.904;2023-04-01T08:54:01;0.50;;;0.50;;
8622;SDS011;4349;47.552;8.904;2023-04-01T08:56:31;0.87;;;0.70;;
8622;SDS011;4349;47.552;8.904;2023-04-01T08:59:20;0.57;;;0.57;;
8622;SDS011;4349;47.552;8.904;2023-04-01T09:01:53;1.43;;;0.60;;
8622;SDS011;4349;47.552;8.904;2023-04-01T09:07:42;0.70;;;0.70;;
8622;SDS011;4349;47.552;8.904;2023-04-01T09:10:21;0.70;;;0.70;;
8622;SDS011;4349;47.552;8.904;2023-04-01T09:13:07;0.67;;;0.67;;
8622;SDS011;4349;47.552;8.904;2023-04-01T09:15:53;1.90;;;1.20;;
8622;SDS011;4349;47.552;8.904;2023-04-01T09:18:29;0.70;;;0.70;;
8622;SDS011;4349;47.552;8.904;2023-04-01T09:21:06;0.70;;;0.70;;
8622;SDS011;4349;47.552;8.904;2023-04-01T09:23:43;0.70;;;0.70;;
8622;SDS011;4349;47.552;8.904;2023-04-01T09:26:24;0.67;;;0.67;;
8622;SDS011;4349;47.552;8.904;2023-04-01T09:28:57;0.67;;;0.67;;
8622;SDS011;4349;47.552;8.904;2023-04-01T09:31:32;0.60;;;0.60;;
8622;SDS011;4349;47.552;8.904;2023-04-01T09:34:25;0.70;;;0.70;;
8622;SDS011;4349;47.552;8.904;2023-04-01T09:37:00;1.07;;;0.70;;
8622;SDS011;4349;47.552;8.904;2023-04-01T09:39:36;0.50;;;0.50;;
8622;SDS011;4349;47.552;8.904;2023-04-01T09:42:14;0.50;;;0.50;;
8622;SDS011;4349;47.552;8.904;2023-04-01T09:44:57;0.70;;;0.70;;
8622;SDS011;4349;47.552;8.904;2023-04-01T09:47:34;0.53;;;0.53;;
8622;SDS011;4349;47.552;8.904;2023-04-01T09:50:20;0.80;;;0.60;;
8622;SDS011;4349;47.552;8.904;2023-04-01T09:52:54;0.70;;;0.70;;
8622;SDS011;4349;47.552;8.904;2023-04-01T09:55:42;0.70;;;0.70;;
8622;SDS011;4349;47.552;8.904;2023-04-01T09:58:27;0.77;;;0.77;;
8622;SDS011;4349;47.552;8.904;2023-04-01T10:13:02;0.70;;;0.70;;
8622;SDS011;4349;47.552;8.904;2023-04-01T10:15:50;0.70;;;0.60;;
8622;SDS011;4349;47.552;8.904;2023-04-01T10:21:12;0.70;;;0.70;;
8622;SDS011;4349;47.552;8.904;2023-04-01T10:23:48;0.50;;;0.50;;
8622;SDS011;4349;47.552;8.904;2023-04-01T10:26:35;1.07;;;0.50;;
8622;SDS011;4349;47.552;8.904;2023-04-01T10:29:26;0.50;;;0.50;;
8622;SDS011;4349;47.552;8.904;2023-04-01T10:32:09;0.50;;;0.50;;
8622;SDS011;4349;47.552;8.904;2023-04-01T10:34:56;0.80;;;0.70;;
8622;SDS011;4349;47.552;8.904;2023-04-01T10:37:34;0.60;;;0.60;;
8622;SDS011;4349;47.552;8.904;2023-04-01T10:40:20;1.10;;;0.47;;
8622;SDS011;4349;47.552;8.904;2023-04-01T10:43:15;0.50;;;0.50;;
8622;SDS011;4349;47.552;8.904;2023-04-01T10:46:12;0.60;;;0.60;;
8622;SDS011;4349;47.552;8.904;2023-04-01T10:51:45;0.70;;;0.70;;
8622;SDS011;4349;47.552;8.904;2023-04-01T10:54:40;0.70;;;0.70;;
8622;SDS011;4349;47.552;8.904;2023-04-01T11:01:02;0.70;;;0.70;;
8622;SDS011;4349;47.552;8.904;2023-04-01T11:04:01;0.50;;;0.50;;
8622;SDS011;4349;47.552;8.904;2023-04-01T11:07:01;0.70;;;0.70;;
8622;SDS011;4349;47.552;8.904;2023-04-01T11:10:04;0.60;;;0.60;;
8622;SDS011;4349;47.552;8.904;2023-04-01T11:15:41;1.17;;;1.17;;
8622;SDS011;4349;47.552;8.904;2023-04-01T11:24:21;0.60;;;0.60;;
8622;SDS011;4349;47.552;8.904;2023-04-01T11:27:38;0.70;;;0.70;;
8622;SDS011;4349;47.552;8.904;2023-04-01T11:32:52;0.60;;;0.60;;
8622;SDS011;4349;47.552;8.904;2023-04-01T11:35:38;0.80;;;0.70;;
8622;SDS011;4349;47.552;8.904;2023-04-01T11:38:24;0.70;;;0.70;;
8622;SDS011;4349;47.552;8.904;2023-04-01T11:40:59;0.40;;;0.40;;
8622;SDS011;4349;47.552;8.904;2023-04-01T11:43:50;0.70;;;0.70;;
8622;SDS011;4349;47.552;8.904;2023-04-01T11:46:33;0.40;;;0.40;;
8622;SDS011;4349;47.552;8.904;2023-04-01T11:49:06;0.40;;;0.40;;
8622;SDS011;4349;47.552;8.904;2023-04-01T11:51:44;0.40;;;0.40;;
8622;SDS011;4349;47.552;8.904;2023-04-01T11:54:20;0.47;;;0.47;;
8622;SDS011;4349;47.552;8.904;2023-04-01T11:56:56;0.70;;;0.70;;
8622;SDS011;4349;47.552;8.904;2023-04-01T12:02:10;0.40;;;0.40;;
8622;SDS011;4349;47.552;8.904;2023-04-01T12:04:45;0.60;;;0.60;;
8622;SDS011;4349;47.552;8.904;2023-04-01T12:07:27;0.63;;;0.63;;
8622;SDS011;4349;47.552;8.904;2023-04-01T12:10:01;0.40;;;0.40;;
8622;SDS011;4349;47.552;8.904;2023-04-01T12:12:35;0.83;;;0.60;;
8622;SDS011;4349;47.552;8.904;2023-04-01T12:15:18;0.70;;;0.70;;
8622;SDS011;4349;47.552;8.904;2023-04-01T12:17:48;0.60;;;0.60;;
8622;SDS011;4349;47.552;8.904;2023-04-01T12:20:28;0.60;;;0.60;;
8622;SDS011;4349;47.552;8.904;2023-04-01T12:22:59;0.70;;;0.70;;
8622;SDS011;4349;47.552;8.904;2023-04-01T12:25:38;0.73;;;0.73;;
8622;SDS011;4349;47.552;8.904;2023-04-01T12:28:14;0.77;;;0.77;;
8622;SDS011;4349;47.552;8.904;2023-04-01T12:30:49;0.60;;;0.60;;
8622;SDS011;4349;47.552;8.904;2023-04-01T12:36:10;1.07;;;0.53;;
8622;SDS011;4349;47.552;8.904;2023-04-01T12:38:43;0.60;;;0.60;;
8622;SDS011;4349;47.552;8.904;2023-04-01T12:41:17;0.70;;;0.70;;
8622;SDS011;4349;47.552;8.904;2023-04-01T12:46:35;0.70;;;0.70;;
8622;SDS011;4349;47.552;8.904;2023-04-01T12:49:10;0.50;;;0.50;;
8622;SDS011;4349;47.552;8.904;2023-04-01T12:51:49;0.60;;;0.60;;
8622;SDS011;4349;47.552;8.904;2023-04-01T12:57:03;0.70;;;0.70;;
8622;SDS011;4349;47.552;8.904;2023-04-01T12:59:38;0.60;;;0.60;;
8622;SDS011;4349;47.552;8.904;2023-04-01T13:02:20;0.93;;;0.90;;
8622;SDS011;4349;47.552;8.904;2023-04-01T13:05:01;0.70;;;0.70;;
8622;SDS011;4349;47.552;8.904;2023-04-01T13:07:46;0.70;;;0.70;;
8622;SDS011;4349;47.552;8.904;2023-04-01T13:10:20;0.50;;;0.50;;
8622;SDS011;4349;47.552;8.904;2023-04-01T13:13:00;0.87;;;0.70;;
8622;SDS011;4349;47.552;8.904;2023-04-01T13:15:36;0.70;;;0.70;;
8622;SDS011;4349;47.552;8.904;2023-04-01T13:18:10;0.63;;;0.53;;
8622;SDS011;4349;47.552;8.904;2023-04-01T13:20:43;0.90;;;0.50;;
8622;SDS011;4349;47.552;8.904;2023-04-01T13:23:14;0.50;;;0.50;;
8622;SDS011;4349;47.552;8.904;2023-04-01T13:25:47;0.60;;;0.60;;
8622;SDS011;4349;47.552;8.904;2023-04-01T13:28:28;0.60;;;0.60;;
8622;SDS011;4349;47.552;8.904;2023-04-01T13:30:58;0.63;;;0.63;;
8622;SDS011;4349;47.552;8.904;2023-04-01T13:33:30;0.60;;;0.60;;
8622;SDS011;4349;47.552;8.904;2023-04-01T13:36:04;0.63;;;0.63;;
8622;SDS011;4349;47.552;8.904;2023-04-01T13:38:40;0.83;;;0.60;;
8622;SDS011;4349;47.552;8.904;2023-04-01T13:41:13;0.53;;;0.53;;
8622;SDS011;4349;47.552;8.904;2023-04-01T13:43:43;0.97;;;0.60;;
8622;SDS011;4349;47.552;8.904;2023-04-01T13:46:17;0.87;;;0.50;;
8622;SDS011;4349;47.552;8.904;2023-04-01T13:49:05;0.63;;;0.63;;
8622;SDS011;4349;47.552;8.904;2023-04-01T13:51:46;0.57;;;0.57;;
8622;SDS011;4349;47.552;8.904;2023-04-01T13:54:25;0.60;;;0.60;;
8622;SDS011;4349;47.552;8.904;2023-04-01T13:57:02;1.03;;;0.60;;
8622;SDS011;4349;47.552;8.904;2023-04-01T13:59:50;0.40;;;0.40;;
8622;SDS011;4349;47.552;8.904;2023-04-01T14:05:15;0.60;;;0.60;;
8622;SDS011;4349;47.552;8.904;2023-04-01T14:08:04;0.73;;;0.70;;
8622;SDS011;4349;47.552;8.904;2023-04-01T14:10:35;0.47;;;0.47;;
8622;SDS011;4349;47.552;8.904;2023-04-01T14:13:07;0.47;;;0.47;;
8622;SDS011;4349;47.552;8.904;2023-04-01T14:15:39;0.50;;;0.50;;
8622;SDS011;4349;47.552;8.904;2023-04-01T14:18:16;0.50;;;0.50;;
8622;SDS011;4349;47.552;8.904;2023-04-01T14:20:49;0.47;;;0.47;;
8622;SDS011;4349;47.552;8.904;2023-04-01T14:26:10;0.97;;;0.60;;
8622;SDS011;4349;47.552;8.904;2023-04-01T14:28:40;0.93;;;0.53;;
8622;SDS011;4349;47.552;8.904;2023-04-01T14:31:20;0.50;;;0.50;;
8622;SDS011;4349;47.552;8.904;2023-04-01T14:33:53;0.57;;;0.57;;
8622;SDS011;4349;47.552;8.904;2023-04-01T14:36:30;0.60;;;0.60;;
8622;SDS011;4349;47.552;8.904;2023-04-01T14:39:00;0.70;;;0.70;;
8622;SDS011;4349;47.552;8.904;2023-04-01T14:41:38;0.70;;;0.70;;
8622;SDS011;4349;47.552;8.904;2023-04-01T14:44:18;0.70;;;0.70;;
8622;SDS011;4349;47.552;8.904;2023-04-01T14:47:03;0.70;;;0.70;;
8622;SDS011;4349;47.552;8.904;2023-04-01T14:49:32;0.80;;;0.80;;
8622;SDS011;4349;47.552;8.904;2023-04-01T14:52:05;0.60;;;0.60;;
8622;SDS011;4349;47.552;8.904;2023-04-01T14:54:37;0.60;;;0.60;;
8622;SDS011;4349;47.552;8.904;2023-04-01T14:57:10;0.60;;;0.60;;
8622;SDS011;4349;47.552;8.904;2023-04-01T14:59:41;0.67;;;0.67;;
8622;SDS011;4349;47.552;8.904;2023-04-01T15:02:15;0.90;;;0.90;;
8622;SDS011;4349;47.552;8.904;2023-04-01T15:04:50;0.70;;;0.70;;
8622;SDS011;4349;47.552;8.904;2023-04-01T15:10:09;1.00;;;0.50;;
8622;SDS011;4349;47.552;8.904;2023-04-01T15:12:47;0.40;;;0.40;;
8622;SDS011;4349;47.552;8.904;2023-04-01T15:15:22;0.53;;;0.53;;
8622;SDS011;4349;47.552;8.904;2023-04-01T15:17:58;0.50;;;0.50;;
8622;SDS011;4349;47.552;8.904;2023-04-01T15:23:28;0.50;;;0.50;;
8622;SDS011;4349;47.552;8.904;2023-04-01T15:28:47;0.60;;;0.60;;
8622;SDS011;4349;47.552;8.904;2023-04-01T15:31:18;0.77;;;0.77;;
8622;SDS011;4349;47.552;8.904;2023-04-01T15:33:51;0.63;;;0.63;;
8622;SDS011;4349;47.552;8.904;2023-04-01T15:36:29;1.10;;;1.00;;
8622;SDS011;4349;47.552;8.904;2023-04-01T15:39:00;0.60;;;0.60;;
8622;SDS011;4349;47.552;8.904;2023-04-01T15:41:39;0.70;;;0.70;;
8622;SDS011;4349;47.552;8.904;2023-04-01T15:44:37;0.67;;;0.67;;
8622;SDS011;4349;47.552;8.904;2023-04-01T15:47:17;0.60;;;0.60;;
8622;SDS011;4349;47.552;8.904;2023-04-01T15:49:55;0.70;;;0.70;;
8622;SDS011;4349;47.552;8.904;2023-04-01T15:52:24;0.60;;;0.60;;
8622;SDS011;4349;47.552;8.904;2023-04-01T15:55:08;0.70;;;0.70;;
8622;SDS011;4349;47.552;8.904;2023-04-01T15:57:40;0.60;;;0.60;;
8622;SDS011;4349;47.552;8.904;2023-04-01T16:00:13;0.60;;;0.60;;
8622;SDS011;4349;47.552;8.904;2023-04-01T16:02:47;0.57;;;0.57;;
8622;SDS011;4349;47.552;8.904;2023-04-01T16:05:25;1.07;;;0.70;;
8622;SDS011;4349;47.552;8.904;2023-04-01T16:10:52;0.57;;;0.57;;
8622;SDS011;4349;47.552;8.904;2023-04-01T16:13:24;0.80;;;0.80;;
8622;SDS011;4349;47.552;8.904;2023-04-01T16:15:59;0.70;;;0.70;;
8622;SDS011;4349;47.552;8.904;2023-04-01T16:18:34;0.63;;;0.63;;
8622;SDS011;4349;47.552;8.904;2023-04-01T16:21:08;0.90;;;0.90;;
8622;SDS011;4349;47.552;8.904;2023-04-01T16:23:39;0.70;;;0.70;;
8622;SDS011;4349;47.552;8.904;2023-04-01T16:26:08;0.70;;;0.70;;
8622;SDS011;4349;47.552;8.904;2023-04-01T16:28:38;0.53;;;0.53;;
8622;SDS011;4349;47.552;8.904;2023-04-01T16:31:09;0.67;;;0.67;;
8622;SDS011;4349;47.552;8.904;2023-04-01T16:33:43;0.53;;;0.53;;
8622;SDS011;4349;47.552;8.904;2023-04-01T16:36:17;0.70;;;0.70;;
8622;SDS011;4349;47.552;8.904;2023-04-01T16:38:48;0.50;;;0.50;;
8622;SDS011;4349;47.552;8.904;2023-04-01T16:41:17;0.60;;;0.60;;
8622;SDS011;4349;47.552;8.904;2023-04-01T16:43:46;1.07;;;0.83;;
8622;SDS011;4349;47.552;8.904;2023-04-01T16:46:30;0.70;;;0.70;;
8622;SDS011;4349;47.552;8.904;2023-04-01T16:49:00;0.80;;;0.80;;
8622;SDS011;4349;47.552;8.904;2023-04-01T16:51:32;0.90;;;0.90;;
8622;SDS011;4349;47.552;8.904;2023-04-01T16:54:02;0.70;;;0.70;;
8622;SDS011;4349;47.552;8.904;2023-04-01T16:56:36;0.70;;;0.70;;
8622;SDS011;4349;47.552;8.904;2023-04-01T16:59:06;0.60;;;0.60;;
8622;SDS011;4349;47.552;8.904;2023-04-01T17:01:39;0.60;;;0.60;;
8622;SDS011;4349;47.552;8.904;2023-04-01T17:04:10;0.97;;;0.77;;
8622;SDS011;4349;47.552;8.904;2023-04-01T17:06:43;0.60;;;0.60;;
8622;SDS011;4349;47.552;8.904;2023-04-01T17:09:16;0.80;;;0.80;;
8622;SDS011;4349;47.552;8.904;2023-04-01T17:11:48;0.70;;;0.70;;